createdAt,value
2022-08-07T00:00:45.888Z,100048.34
2022-08-07T00:03:36.563Z,100034.56
2022-08-07T00:06:33.111Z,100029.38
2022-08-07T00:09:22.577Z,100022.41
2022-08-07T00:12:17.672Z,100032.78
2022-08-07T00:15:08.876Z,100023.22
2022-08-07T00:17:56.042Z,100025.81
2022-08-07T00:20:43.745Z,100024.84
2022-08-07T00:23:32.391Z,100017.06
2022-08-07T00:26:49.536Z,100016.13
2022-08-07T00:29:31.419Z,100012.72
2022-08-07T00:32:19.324Z,100015.44
2022-08-07T00:35:16.649Z,100011.88
2022-08-07T00:38:03.833Z,100011.88
2022-08-07T00:40:51.738Z,100012.84
2022-08-07T00:43:59.736Z,100012.84
2022-08-07T00:46:47.715Z,100004.25
2022-08-07T00:50:21.326Z,100008.47
2022-08-07T00:52:41.819Z,100004.25
2022-08-07T00:56:02.551Z,99999.88
2022-08-07T00:58:46.753Z,99991.41
2022-08-07T01:01:44.521Z,99990.47
2022-08-07T01:04:37.433Z,99988.97
2022-08-07T01:07:31.216Z,99986.53
2022-08-07T01:10:19.982Z,99988.28
2022-08-07T01:13:08.299Z,99987.63
2022-08-07T01:16:01.121Z,99989.28
2022-08-07T01:18:53.430Z,99991.97
2022-08-07T01:21:44.998Z,99994.56
2022-08-07T01:24:34.754Z,99996.38
2022-08-07T01:27:23.450Z,100000.75
2022-08-07T01:30:20.555Z,99990.38
2022-08-07T01:33:15.810Z,99994.88
2022-08-07T01:36:07.554Z,100000.06
2022-08-07T01:39:01.202Z,99992.41
2022-08-07T01:42:07.162Z,99993.38
2022-08-07T01:44:58.475Z,99996.94
2022-08-07T01:48:20.040Z,100006.47
2022-08-07T01:51:24.735Z,99994.47
2022-08-07T01:54:33.074Z,99985.75
2022-08-07T01:57:29.928Z,99987.53
2022-08-07T02:00:29.004Z,99986.69
2022-08-07T02:03:21.699Z,99993.66
2022-08-07T02:06:31.365Z,99986.03
2022-08-07T02:09:52.343Z,99982.75
2022-08-07T02:12:38.881Z,99984.69
2022-08-07T02:15:32.368Z,99977.88
2022-08-07T02:18:22.752Z,99976.22
2022-08-07T02:21:16.358Z,99968.72
2022-08-07T02:24:06.666Z,99977.38
2022-08-07T02:27:01.116Z,99971.66
2022-08-07T02:29:54.554Z,99976.97
2022-08-07T02:33:03.728Z,99964.28
2022-08-07T02:36:29.539Z,99964.59
2022-08-07T02:39:16.034Z,99956.97
2022-08-07T02:42:10.183Z,99961.31
2022-08-07T02:45:11.816Z,99959.69
2022-08-07T02:48:16.026Z,99965.00
2022-08-07T02:51:28.941Z,99957.22
2022-08-07T02:54:22.526Z,99954.75
2022-08-07T02:57:17.298Z,99951.34
2022-08-07T03:00:11.148Z,99951.22
2022-08-07T03:03:06.046Z,99947.94
2022-08-07T03:05:58.550Z,99943.03
2022-08-07T03:08:46.391Z,99948.19
2022-08-07T03:11:38.776Z,99939.78
2022-08-07T03:14:31.955Z,99954.47
2022-08-07T03:17:22.038Z,99953.69
2022-08-07T03:20:11.844Z,99949.59
2022-08-07T03:23:02.625Z,99940.31
2022-08-07T03:25:58.518Z,99938.81
2022-08-07T03:28:51.593Z,99943.06
2022-08-07T03:31:43.918Z,99943.19
2022-08-07T03:34:39.209Z,99940.06
2022-08-07T03:37:29.415Z,99941.84
2022-08-07T03:40:22.433Z,99940.22
2022-08-07T03:43:14.633Z,99946.34
2022-08-07T03:46:10.417Z,99951.53
2022-08-07T03:49:09.993Z,99948.94
2022-08-07T03:52:02.932Z,99943.75
2022-08-07T03:54:55.121Z,99946.34
2022-08-07T03:58:34.691Z,99956.69
2022-08-07T04:01:00.814Z,99956.19
2022-08-07T04:03:55.388Z,99951.28
2022-08-07T04:06:50.907Z,99953.03
2022-08-07T04:09:45.293Z,99965.44
2022-08-07T04:12:42.069Z,99957.31
2022-08-07T04:15:29.869Z,99954.84
2022-08-07T04:18:59.027Z,99964.25
2022-08-07T04:21:25.775Z,99968.91
2022-08-07T04:24:30.665Z,99973.81
2022-08-07T04:27:25.755Z,99964.00
2022-08-07T04:30:21.251Z,99969.31
2022-08-07T04:33:30.159Z,99962.78
2022-08-07T04:36:18.268Z,99970.69
2022-08-07T04:39:13.367Z,99963.88
2022-08-07T04:42:07.623Z,99965.50
2022-08-07T04:45:03.280Z,99978.44
2022-08-07T04:48:10.560Z,99979.13
2022-08-07T04:51:09.252Z,99985.94
2022-08-07T04:54:06.044Z,99973.94
2022-08-07T04:58:11.258Z,99984.28
2022-08-07T05:00:30.014Z,99983.22
2022-08-07T05:03:38.755Z,99985.13
2022-08-07T05:06:43.081Z,99985.13
2022-08-07T05:09:45.709Z,99988.38
2022-08-07T05:12:51.548Z,99991.69
2022-08-07T05:15:46.595Z,99999.97
2022-08-07T05:18:47.300Z,99991.94
2022-08-07T05:21:59.251Z,99990.81
2022-08-07T05:24:47.417Z,99980.75
2022-08-07T05:28:15.820Z,99988.78
2022-08-07T05:30:49.343Z,99984.03
2022-08-07T05:33:39.045Z,99995.03
2022-08-07T05:36:30.476Z,100000.63
2022-08-07T05:40:13.782Z,100001.06
2022-08-07T05:42:34.253Z,100011.69
2022-08-07T05:45:28.151Z,100009.50
2022-08-07T05:48:34.124Z,100009.88
2022-08-07T05:51:24.283Z,100010.28
2022-08-07T05:54:31.340Z,100011.50
2022-08-07T05:57:23.357Z,100013.69
2022-08-07T06:00:16.518Z,100014.13
2022-08-07T06:03:12.870Z,100005.09
2022-08-07T06:06:04.544Z,100013.25
2022-08-07T06:08:58.246Z,100017.19
2022-08-07T06:11:47.097Z,100013.41
2022-08-07T06:14:35.598Z,100014.75
2022-08-07T06:17:30.622Z,100017.69
2022-08-07T06:20:49.931Z,100010.63
2022-08-07T06:24:37.844Z,100011.00
2022-08-07T06:26:45.117Z,100022.72
2022-08-07T06:29:35.168Z,100008.66
2022-08-07T06:32:29.451Z,100013.41
2022-08-07T06:35:20.337Z,100013.13
2022-08-07T06:38:10.173Z,100018.69
2022-08-07T06:42:00.940Z,100011.63
2022-08-07T06:44:31.002Z,100003.53
2022-08-07T06:47:23.100Z,100007.47
2022-08-07T06:50:15.555Z,100007.19
2022-08-07T06:53:49.203Z,99999.09
2022-08-07T06:56:39.416Z,100004.84
2022-08-07T07:00:13.716Z,100008.13
2022-08-07T07:02:57.987Z,100004.41
2022-08-07T07:06:02.926Z,100004.94
2022-08-07T07:08:54.755Z,100009.84
2022-08-07T07:12:08.672Z,100013.91
2022-08-07T07:15:16.206Z,100010.38
2022-08-07T07:18:47.470Z,100011.88
2022-08-07T07:21:40.223Z,100014.59
2022-08-07T07:24:43.113Z,100015.72
2022-08-07T07:27:56.071Z,100012.31
2022-08-07T07:30:54.782Z,100008.72
2022-08-07T07:33:44.739Z,100012.81
2022-08-07T07:36:47.801Z,100005.72
2022-08-07T07:39:52.565Z,100003.78
2022-08-07T07:42:47.315Z,100001.03
2022-08-07T07:46:39.714Z,99994.72
2022-08-07T07:49:00.227Z,100004.16
2022-08-07T07:51:59.763Z,99993.63
2022-08-07T07:54:51.154Z,99990.88
2022-08-07T07:57:52.606Z,99994.00
2022-08-07T08:00:45.719Z,99999.84
2022-08-07T08:04:10.666Z,99985.91
2022-08-07T08:06:51.940Z,99979.78
2022-08-07T08:09:52.058Z,99990.00
2022-08-07T08:12:52.514Z,99981.09
2022-08-07T08:15:58.723Z,99981.91
2022-08-07T08:18:50.391Z,99988.59
2022-08-07T08:22:03.647Z,99985.03
2022-08-07T08:25:24.974Z,99984.09
2022-08-07T08:28:37.603Z,99982.28
2022-08-07T08:32:10.163Z,99976.00
2022-08-07T08:34:52.967Z,99970.00
2022-08-07T08:38:08.291Z,99977.47
2022-08-07T08:40:57.075Z,99973.75
2022-08-07T08:43:59.317Z,99973.63
2022-08-07T08:46:58.042Z,99979.47
2022-08-07T08:50:04.984Z,99978.34
2022-08-07T08:53:02.898Z,99977.25
2022-08-07T08:55:58.293Z,99964.09
2022-08-07T08:58:54.481Z,99971.75
2022-08-07T09:01:51.084Z,99968.19
2022-08-07T09:04:46.941Z,99968.03
2022-08-07T09:07:46.430Z,99964.50
2022-08-07T09:10:50.121Z,99958.34
2022-08-07T09:13:49.360Z,99965.84
2022-08-07T09:16:51.355Z,99961.97
2022-08-07T09:19:56.643Z,99961.00
2022-08-07T09:24:33.530Z,99962.66
2022-08-07T09:26:20.838Z,99960.06
2022-08-07T09:30:05.238Z,99956.34
2022-08-07T09:33:16.426Z,99958.09
2022-08-07T09:36:17.933Z,99950.84
2022-08-07T09:39:53.769Z,99945.47
2022-08-07T09:42:51.414Z,99951.34
2022-08-07T09:47:26.354Z,99939.81
2022-08-07T09:50:02.316Z,99938.69
2022-08-07T09:52:33.485Z,99938.41
2022-08-07T09:55:29.554Z,99927.41
2022-08-07T09:58:52.292Z,99934.59
2022-08-07T10:02:03.237Z,99930.72
2022-08-07T10:05:59.020Z,99925.22
2022-08-07T10:08:55.467Z,99923.94
2022-08-07T10:12:18.127Z,99915.53
2022-08-07T10:15:48.480Z,99910.00
2022-08-07T10:18:49.776Z,99906.78
2022-08-07T10:22:14.473Z,99902.31
2022-08-07T10:25:22.578Z,99897.50
2022-08-07T10:28:52.375Z,99897.22
2022-08-07T10:31:55.152Z,99896.13
2022-08-07T10:34:59.279Z,99885.47
2022-08-07T10:38:15.525Z,99884.34
2022-08-07T10:41:46.916Z,99882.38
2022-08-07T10:44:45.262Z,99884.31
2022-08-07T10:47:52.730Z,99881.41
2022-08-07T10:50:53.630Z,99879.13
2022-08-07T10:54:11.842Z,99886.59
2022-08-07T10:57:11.857Z,99873.56
2022-08-07T11:00:09.605Z,99873.41
2022-08-07T11:03:37.618Z,99868.72
2022-08-07T11:06:41.165Z,99875.53
2022-08-07T11:10:09.159Z,99862.97
2022-08-07T11:13:01.924Z,99863.66
2022-08-07T11:15:55.682Z,99865.94
2022-08-07T11:18:51.768Z,99860.22
2022-08-07T11:21:58.933Z,99854.56
2022-08-07T11:24:54.983Z,99863.50
2022-08-07T11:28:02.899Z,99846.59
2022-08-07T11:30:59.278Z,99844.28
2022-08-07T11:34:00.340Z,99844.78
2022-08-07T11:37:02.805Z,99831.25
2022-08-07T11:40:22.687Z,99843.97
2022-08-07T11:43:41.170Z,99832.91
2022-08-07T11:46:48.642Z,99827.88
2022-08-07T11:50:31.156Z,99824.47
2022-08-07T11:53:33.739Z,99825.44
2022-08-07T11:56:40.232Z,99818.59
2022-08-07T12:00:19.025Z,99812.75
2022-08-07T12:03:54.986Z,99813.06
2022-08-07T12:06:59.071Z,99812.09
2022-08-07T12:09:57.413Z,99810.44
2022-08-07T12:12:55.201Z,99812.88
2022-08-07T12:16:07.045Z,99812.09
2022-08-07T12:19:10.734Z,99815.66
2022-08-07T12:22:39.045Z,99815.66
2022-08-07T12:26:03.106Z,99811.44
2022-08-07T12:29:05.411Z,99815.81
2022-08-07T12:32:04.020Z,99793.22
2022-08-07T12:34:56.213Z,99788.03
2022-08-07T12:38:10.201Z,99786.22
2022-08-07T12:40:58.575Z,99782.81
2022-08-07T12:44:02.484Z,99784.41
2022-08-07T12:47:14.133Z,99780.22
2022-08-07T12:50:38.568Z,99776.78
2022-08-07T12:54:24.077Z,99769.81
2022-08-07T12:56:51.367Z,99775.81
2022-08-07T12:59:55.249Z,99778.06
2022-08-07T13:03:07.085Z,99768.16
2022-08-07T13:06:21.618Z,99768.00
2022-08-07T13:10:19.770Z,99762.63
2022-08-07T13:12:41.909Z,99765.22
2022-08-07T13:15:38.514Z,99764.25
2022-08-07T13:18:39.759Z,99763.28
2022-08-07T13:21:50.110Z,99751.88
2022-08-07T13:24:54.060Z,99757.91
2022-08-07T13:28:13.849Z,99742.28
2022-08-07T13:31:12.930Z,99743.09
2022-08-07T13:34:33.768Z,99736.91
2022-08-07T13:37:30.725Z,99740.16
2022-08-07T13:40:35.412Z,99727.00
2022-08-07T13:43:30.598Z,99730.41
2022-08-07T13:46:28.906Z,99725.81
2022-08-07T13:50:34.005Z,99725.81
2022-08-07T13:52:39.571Z,99725.81
2022-08-07T13:55:29.243Z,99720.59
2022-08-07T13:58:40.363Z,99719.66
2022-08-07T14:01:33.245Z,99724.06
2022-08-07T14:04:54.378Z,99718.00
2022-08-07T14:07:59.719Z,99718.00
2022-08-07T14:11:01.759Z,99717.03
2022-08-07T14:13:55.871Z,99711.03
2022-08-07T14:16:50.552Z,99709.22
2022-08-07T14:20:42.836Z,99704.00
2022-08-07T14:23:08.643Z,99702.38
2022-08-07T14:26:08.337Z,99696.38
2022-08-07T14:29:06.036Z,99699.66
2022-08-07T14:32:03.170Z,99697.66
2022-08-07T14:34:52.516Z,99695.72
2022-08-07T14:37:41.845Z,99687.75
2022-08-07T14:40:35.014Z,99689.38
2022-08-07T14:43:57.075Z,99685.94
2022-08-07T14:46:33.546Z,99680.72
2022-08-07T14:49:57.318Z,99670.31
2022-08-07T14:52:36.561Z,99678.13
2022-08-07T14:55:31.869Z,99682.38
2022-08-07T14:58:24.122Z,99678.13
2022-08-07T15:01:21.588Z,99670.31
2022-08-07T15:04:12.032Z,99668.53
2022-08-07T15:07:00.871Z,99675.69
2022-08-07T15:13:12.286Z,99669.03
2022-08-07T15:16:11.149Z,99659.41
2022-08-07T15:19:02.001Z,99659.41
2022-08-07T15:22:04.114Z,99662.03
2022-08-07T15:25:14.053Z,99647.41
2022-08-07T15:28:34.211Z,99644.78
2022-08-07T15:32:01.983Z,99650.97
2022-08-07T15:34:26.090Z,99649.34
2022-08-07T15:40:33.975Z,99644.13
2022-08-07T15:43:52.927Z,99641.53
2022-08-07T15:46:40.170Z,99640.72
2022-08-07T15:50:05.106Z,99634.69
2022-08-07T15:52:52.409Z,99636.31
2022-08-07T15:56:02.254Z,99636.31
2022-08-07T15:58:53.587Z,99629.47
2022-08-07T16:01:46.619Z,99628.69
2022-08-07T16:04:50.828Z,99627.06
2022-08-07T16:08:33.456Z,99622.69
2022-08-07T16:11:00.525Z,99624.63
2022-08-07T16:14:06.886Z,99622.03
2022-08-07T16:17:14.972Z,99619.41
2022-08-07T16:20:34.657Z,99610.97
2022-08-07T16:23:55.061Z,99620.38
2022-08-07T16:26:59.249Z,99617.78
2022-08-07T16:30:29.336Z,99622.19
2022-08-07T16:34:03.432Z,99616.19
2022-08-07T16:37:00.124Z,99616.19
2022-08-07T16:40:12.845Z,99618.13
2022-08-07T16:44:06.453Z,99621.69
2022-08-07T16:47:16.691Z,99617.50
2022-08-07T16:51:20.349Z,99611.63
2022-08-07T16:54:23.030Z,99622.06
2022-08-07T16:58:02.156Z,99617.81
2022-08-07T17:01:17.555Z,99620.41
2022-08-07T17:04:29.663Z,99615.22
2022-08-07T17:07:28.344Z,99617.81
2022-08-07T17:10:54.553Z,99611.81
2022-08-07T17:14:17.864Z,99615.22
2022-08-07T17:17:21.518Z,99624.03
2022-08-07T17:20:21.486Z,99614.41
2022-08-07T17:23:32.008Z,99611.97
2022-08-07T17:26:31.345Z,99621.41
2022-08-07T17:30:15.861Z,99625.97
2022-08-07T17:33:01.155Z,99623.53
2022-08-07T17:36:02.341Z,99628.75
2022-08-07T17:39:02.838Z,99621.72
2022-08-07T17:42:06.951Z,99624.34
2022-08-07T17:45:00.975Z,99622.75
2022-08-07T17:48:00.702Z,99635.88
2022-08-07T17:50:58.137Z,99628.09
2022-08-07T17:54:02.405Z,99627.28
2022-08-07T17:57:00.763Z,99635.25
2022-08-07T17:59:53.997Z,99633.63
2022-08-07T18:02:56.450Z,99639.81
2022-08-07T18:06:01.379Z,99639.00
2022-08-07T18:09:02.270Z,99639.34
2022-08-07T18:12:28.223Z,99648.94
2022-08-07T18:15:24.294Z,99650.88
2022-08-07T18:18:46.910Z,99650.03
2022-08-07T18:21:51.637Z,99652.00
2022-08-07T18:24:51.495Z,99655.75
2022-08-07T18:28:15.035Z,99663.72
2022-08-07T18:31:26.312Z,99664.84
2022-08-07T18:35:00.595Z,99663.41
2022-08-07T18:38:54.814Z,99668.09
2022-08-07T18:41:44.958Z,99673.66
2022-08-07T18:48:09.084Z,99667.47
2022-08-07T18:51:07.631Z,99668.63
2022-08-07T18:54:27.595Z,99679.38
2022-08-07T18:57:40.269Z,99685.88
2022-08-07T19:00:54.288Z,99687.97
2022-08-07T19:03:52.076Z,99692.66
2022-08-07T19:06:51.385Z,99691.22
2022-08-07T19:09:56.571Z,99702.75
2022-08-07T19:12:58.319Z,99704.06
2022-08-07T19:16:42.832Z,99720.81
2022-08-07T19:19:28.060Z,99724.69
2022-08-07T19:22:31.194Z,99723.22
2022-08-07T19:26:24.612Z,99729.72
2022-08-07T19:30:56.917Z,99730.81
2022-08-07T19:32:08.274Z,99732.91
2022-08-07T19:34:55.285Z,99741.03
2022-08-07T19:37:57.341Z,99742.00
2022-08-07T19:40:50.317Z,99746.56
2022-08-07T19:43:49.117Z,99750.94
2022-08-07T19:46:55.341Z,99758.25
2022-08-07T19:49:56.474Z,99765.38
2022-08-07T19:52:46.505Z,99753.50
2022-08-07T19:55:57.333Z,99755.63
2022-08-07T19:58:53.199Z,99760.97
2022-08-07T20:01:57.081Z,99766.16
2022-08-07T20:04:49.295Z,99768.13
2022-08-07T20:07:46.509Z,99758.84
2022-08-07T20:10:54.410Z,99768.56
2022-08-07T20:13:49.883Z,99762.72
2022-08-07T20:16:37.899Z,99769.84
2022-08-07T20:19:48.140Z,99766.63
2022-08-07T20:22:47.207Z,99766.78
2022-08-07T20:25:40.302Z,99766.09
2022-08-07T20:28:31.746Z,99771.47
2022-08-07T20:31:23.217Z,99777.63
2022-08-07T20:34:11.597Z,99763.97
2022-08-07T20:37:00.750Z,99777.94
2022-08-07T20:40:02.521Z,99772.91
2022-08-07T20:42:57.903Z,99769.63
2022-08-07T20:46:28.153Z,99774.19
2022-08-07T20:50:01.161Z,99770.09
2022-08-07T20:52:16.510Z,99773.66
2022-08-07T20:55:06.195Z,99763.44
2022-08-07T20:58:02.649Z,99761.00
2022-08-07T21:00:57.783Z,99764.56
2022-08-07T21:04:13.024Z,99762.94
2022-08-07T21:07:03.920Z,99752.03
2022-08-07T21:10:00.266Z,99753.00
2022-08-07T21:12:49.699Z,99755.78
2022-08-07T21:15:47.604Z,99752.47
2022-08-07T21:18:41.166Z,99749.22
2022-08-07T21:21:49.285Z,99745.94
2022-08-07T21:25:12.241Z,99746.94
2022-08-07T21:28:13.563Z,99745.47
2022-08-07T21:31:15.633Z,99753.41
2022-08-07T21:34:31.933Z,99752.75
2022-08-07T21:37:24.305Z,99748.50
2022-08-07T21:40:23.339Z,99752.09
2022-08-07T21:43:15.604Z,99746.91
2022-08-07T21:46:25.188Z,99760.00
2022-08-07T21:49:28.445Z,99751.75
2022-08-07T21:52:51.601Z,99757.88
2022-08-07T21:55:53.506Z,99753.81
2022-08-07T21:58:54.103Z,99755.78
2022-08-07T22:02:11.450Z,99757.53
2022-08-07T22:05:02.336Z,99748.25
2022-08-07T22:07:58.592Z,99750.84
2022-08-07T22:10:52.309Z,99749.38
2022-08-07T22:13:50.303Z,99754.56
2022-08-07T22:16:47.927Z,99749.53
2022-08-07T22:19:42.000Z,99752.28
2022-08-07T22:22:40.009Z,99748.22
2022-08-07T22:25:42.988Z,99756.16
2022-08-07T22:28:48.227Z,99762.31
2022-08-07T22:31:59.230Z,99762.47
2022-08-07T22:34:56.072Z,99769.44
2022-08-07T22:38:04.460Z,99770.25
2022-08-07T22:40:59.827Z,99769.59
2022-08-07T22:43:56.170Z,99776.56
2022-08-07T22:47:26.905Z,99770.03
2022-08-07T22:50:45.380Z,99781.41
2022-08-07T22:54:06.526Z,99785.94
2022-08-07T22:57:17.004Z,99782.69
2022-08-07T23:00:16.220Z,99774.06
2022-08-07T23:03:59.142Z,99777.63
2022-08-07T23:07:39.889Z,99782.97
2022-08-07T23:10:41.978Z,99790.09
2022-08-07T23:14:09.126Z,99777.41
2022-08-07T23:17:31.110Z,99782.91
2022-08-07T23:20:51.420Z,99772.53
2022-08-07T23:24:11.921Z,99771.72
2022-08-07T23:27:33.727Z,99781.25
2022-08-07T23:30:39.172Z,99768.28
2022-08-07T23:34:36.300Z,99769.28
2022-08-07T23:37:24.243Z,99766.97
2022-08-07T23:40:32.852Z,99778.97
2022-08-07T23:43:51.268Z,99770.41
2022-08-07T23:47:13.223Z,99768.75
2022-08-07T23:50:48.228Z,99771.50
2022-08-07T23:53:50.910Z,99767.13
2022-08-07T23:56:53.498Z,99767.94
